createdAt,value
2017-11-20T00:01:13.606Z,11.87
2017-11-20T00:03:41.021Z,12.70
2017-11-20T00:06:08.451Z,12.90
2017-11-20T00:08:35.877Z,10.90
2017-11-20T00:11:03.298Z,9.30
2017-11-20T00:13:30.751Z,14.00
2017-11-20T00:15:58.585Z,16.30
2017-11-20T00:18:26.008Z,13.83
2017-11-20T00:20:53.440Z,11.80
2017-11-20T00:23:21.590Z,13.00
2017-11-20T00:25:49.556Z,14.50
2017-11-20T00:28:17.422Z,10.53
2017-11-20T00:30:44.854Z,16.33
2017-11-20T00:33:13.042Z,9.20
2017-11-20T00:35:40.480Z,10.50
2017-11-20T00:38:08.687Z,17.60
2017-11-20T00:40:36.562Z,13.10
2017-11-20T00:43:03.977Z,8.37
2017-11-20T00:45:34.730Z,13.87
2017-11-20T00:48:02.588Z,13.23
2017-11-20T00:50:30.025Z,13.13
2017-11-20T00:52:58.230Z,21.17
2017-11-20T00:55:25.661Z,9.70
2017-11-20T00:57:53.849Z,15.70
2017-11-20T01:00:21.285Z,12.13
2017-11-20T01:02:50.025Z,14.57
2017-11-20T01:05:17.453Z,14.77
2017-11-20T01:07:45.327Z,19.57
2017-11-20T01:10:12.765Z,10.53
2017-11-20T01:12:41.066Z,17.93
2017-11-20T01:15:08.549Z,12.63
2017-11-20T01:17:35.977Z,12.97
2017-11-20T01:20:03.406Z,14.60
2017-11-20T01:22:31.598Z,10.77
2017-11-20T01:24:59.032Z,11.23
2017-11-20T01:27:27.230Z,13.83
2017-11-20T01:29:55.202Z,12.73
2017-11-20T01:32:22.632Z,11.83
2017-11-20T01:34:50.065Z,15.27
2017-11-20T01:37:17.808Z,9.73
2017-11-20T01:39:45.281Z,10.77
2017-11-20T01:42:12.721Z,13.57
2017-11-20T01:44:40.150Z,7.70
2017-11-20T01:47:07.695Z,12.10
2017-11-20T01:49:36.159Z,15.07
2017-11-20T01:52:03.584Z,11.60
2017-11-20T01:54:31.414Z,9.97
2017-11-20T01:56:58.866Z,12.20
2017-11-20T01:59:26.352Z,11.53
2017-11-20T02:01:53.773Z,16.53
2017-11-20T02:04:21.961Z,9.37
2017-11-20T02:06:49.392Z,15.27
2017-11-20T02:09:17.569Z,15.50
2017-11-20T02:11:45.776Z,11.90
2017-11-20T02:14:13.209Z,11.87
2017-11-20T02:16:41.401Z,14.70
2017-11-20T02:19:09.238Z,12.20
2017-11-20T02:21:38.366Z,16.43
2017-11-20T02:24:05.792Z,9.93
2017-11-20T02:26:34.530Z,13.70
2017-11-20T02:29:01.954Z,13.13
2017-11-20T02:31:30.559Z,13.80
2017-11-20T02:33:57.993Z,13.73
2017-11-20T02:36:26.186Z,12.50
2017-11-20T02:38:53.606Z,13.47
2017-11-20T02:41:21.813Z,10.43
2017-11-20T02:43:49.666Z,12.47
2017-11-20T02:46:17.861Z,8.80
2017-11-20T02:48:45.281Z,12.37
2017-11-20T02:51:13.493Z,9.30
2017-11-20T02:53:40.919Z,15.17
2017-11-20T02:56:09.150Z,16.23
2017-11-20T02:58:36.568Z,11.07
2017-11-20T03:01:04.000Z,8.23
2017-11-20T03:03:32.195Z,14.63
2017-11-20T03:05:59.625Z,14.10
2017-11-20T03:08:27.818Z,8.93
2017-11-20T03:10:56.731Z,7.50
2017-11-20T03:13:24.167Z,10.97
2017-11-20T03:15:52.372Z,15.20
2017-11-20T03:18:19.867Z,12.90
2017-11-20T03:20:47.312Z,15.30
2017-11-20T03:23:15.174Z,19.00
2017-11-20T03:25:43.427Z,11.00
2017-11-20T03:28:11.393Z,11.93
2017-11-20T03:30:38.823Z,11.00
2017-11-20T03:33:07.004Z,12.57
2017-11-20T03:35:34.443Z,10.87
2017-11-20T03:38:02.613Z,11.60
2017-11-20T03:40:30.822Z,11.27
2017-11-20T03:42:58.241Z,13.60
2017-11-20T03:45:27.985Z,13.07
2017-11-20T03:47:55.407Z,16.03
2017-11-20T03:50:22.831Z,9.43
2017-11-20T03:52:50.281Z,16.23
2017-11-20T03:55:18.400Z,13.33
2017-11-20T03:57:46.934Z,11.50
2017-11-20T04:00:14.635Z,5.73
2017-11-20T04:02:42.045Z,16.03
2017-11-20T04:05:09.496Z,12.30
2017-11-20T04:07:36.917Z,14.87
2017-11-20T04:10:04.338Z,10.70
2017-11-20T04:12:31.779Z,11.97
2017-11-20T04:14:59.220Z,13.60
2017-11-20T04:17:26.652Z,10.53
2017-11-20T04:19:54.846Z,10.83
2017-11-20T04:22:22.289Z,9.70
2017-11-20T04:24:51.067Z,12.07
2017-11-20T04:27:19.262Z,14.13
2017-11-20T04:29:46.699Z,16.43
2017-11-20T04:32:14.906Z,8.17
2017-11-20T04:34:42.332Z,12.70
2017-11-20T04:37:10.527Z,11.10
2017-11-20T04:39:38.369Z,16.63
2017-11-20T04:42:06.571Z,10.10
2017-11-20T04:44:34.530Z,15.27
2017-11-20T04:47:01.979Z,11.10
2017-11-20T04:52:04.031Z,9.73
2017-11-20T04:54:31.449Z,9.93
2017-11-20T04:56:58.886Z,8.80
2017-11-20T04:59:26.628Z,11.47
2017-11-20T05:01:54.825Z,11.37
2017-11-20T05:04:22.269Z,22.10
2017-11-20T05:06:50.566Z,17.17
2017-11-20T05:09:18.906Z,14.77
2017-11-20T05:11:47.102Z,13.20
2017-11-20T05:14:15.049Z,17.27
2017-11-20T05:16:43.257Z,12.83
2017-11-20T05:19:10.675Z,11.70
2017-11-20T05:21:38.102Z,14.57
2017-11-20T05:24:05.530Z,12.37
2017-11-20T05:26:33.359Z,12.20
2017-11-20T05:29:00.779Z,8.90
2017-11-20T05:31:28.220Z,10.50
2017-11-20T05:33:55.639Z,11.47
2017-11-20T05:36:23.835Z,13.33
2017-11-20T05:38:51.257Z,12.90
2017-11-20T05:41:19.466Z,13.40
2017-11-20T05:43:46.897Z,22.27
2017-11-20T05:46:14.326Z,18.33
2017-11-20T05:48:41.746Z,13.03
2017-11-20T05:51:09.289Z,18.00
2017-11-20T05:53:36.721Z,11.70
2017-11-20T05:56:04.162Z,18.00
2017-11-20T05:58:31.598Z,14.73
2017-11-20T06:00:59.043Z,12.93
2017-11-20T06:03:26.478Z,16.90
2017-11-20T06:05:54.460Z,14.03
2017-11-20T06:08:21.886Z,19.30
2017-11-20T06:10:50.089Z,15.83
2017-11-20T06:13:17.521Z,16.90
2017-11-20T06:15:45.721Z,19.73
2017-11-20T06:18:13.193Z,12.87
2017-11-20T06:20:40.625Z,16.43
2017-11-20T06:23:08.048Z,17.23
2017-11-20T06:25:35.468Z,16.97
2017-11-20T06:28:02.911Z,15.70
2017-11-20T06:30:30.348Z,21.33
2017-11-20T06:32:57.780Z,18.83
2017-11-20T06:35:25.982Z,14.80
2017-11-20T06:37:53.413Z,25.27
2017-11-20T06:40:21.615Z,23.53
2017-11-20T06:42:49.054Z,20.87
2017-11-20T06:45:17.280Z,21.13
2017-11-20T06:47:44.732Z,26.60
2017-11-20T06:50:12.169Z,24.53
2017-11-20T06:52:39.609Z,25.57
2017-11-20T06:55:07.813Z,24.57
2017-11-20T06:57:35.256Z,28.20
2017-11-20T07:00:02.681Z,28.33
2017-11-20T07:02:30.898Z,26.50
2017-11-20T07:04:58.338Z,26.97
2017-11-20T07:07:26.667Z,30.37
2017-11-20T07:09:54.108Z,25.47
2017-11-20T07:12:21.550Z,30.13
2017-11-20T07:14:48.986Z,26.77
2017-11-20T07:17:16.433Z,31.40
2017-11-20T07:19:46.036Z,29.67
2017-11-20T07:22:14.235Z,24.57
2017-11-20T07:24:41.680Z,25.07
2017-11-20T07:27:21.023Z,25.70
2017-11-20T07:30:01.139Z,27.17
2017-11-20T07:32:29.357Z,28.57
2017-11-20T07:34:56.789Z,31.87
2017-11-20T07:40:37.683Z,32.73
2017-11-20T07:43:05.117Z,34.60
2017-11-20T07:45:32.550Z,29.07
2017-11-20T07:47:59.986Z,33.30
2017-11-20T07:50:27.423Z,41.73
2017-11-20T07:52:54.875Z,30.40
2017-11-20T07:55:22.308Z,29.10
2017-11-20T07:57:50.511Z,29.60
2017-11-20T08:02:56.268Z,27.20
2017-11-20T08:05:23.705Z,28.87
2017-11-20T08:07:51.905Z,35.47
2017-11-20T08:10:19.338Z,23.83
2017-11-20T08:12:47.540Z,34.77
2017-11-20T08:15:14.972Z,31.73
2017-11-20T08:17:43.170Z,29.80
2017-11-20T08:20:10.597Z,35.33
2017-11-20T08:22:38.801Z,36.23
2017-11-20T08:25:06.230Z,33.53
2017-11-20T08:27:34.977Z,30.67
2017-11-20T08:30:02.406Z,27.03
2017-11-20T08:32:29.849Z,27.83
2017-11-20T08:34:57.295Z,23.03
2017-11-20T08:37:25.492Z,28.27
2017-11-20T08:39:52.926Z,32.93
2017-11-20T08:42:21.137Z,35.57
2017-11-20T08:44:49.415Z,31.87
2017-11-20T08:47:16.838Z,36.43
2017-11-20T08:49:45.050Z,33.67
2017-11-20T08:52:12.495Z,38.37
2017-11-20T08:54:39.921Z,36.70
2017-11-20T08:57:08.216Z,44.53
2017-11-20T08:59:35.724Z,38.63
2017-11-20T09:02:03.925Z,36.27
2017-11-20T09:04:32.123Z,35.67
2017-11-20T09:07:00.987Z,28.90
2017-11-20T09:09:28.428Z,35.00
2017-11-20T09:11:56.088Z,31.27
2017-11-20T09:14:23.510Z,29.23
2017-11-20T09:16:50.969Z,29.83
2017-11-20T09:19:19.033Z,30.33
2017-11-20T09:21:47.006Z,28.70
2017-11-20T09:24:14.446Z,29.50
2017-11-20T09:26:41.876Z,29.40
2017-11-20T09:29:10.077Z,26.77
2017-11-20T09:31:37.513Z,27.50
2017-11-20T09:34:05.735Z,28.70
2017-11-20T09:36:33.163Z,23.63
2017-11-20T09:39:01.009Z,29.10
2017-11-20T09:41:29.209Z,28.33
2017-11-20T09:43:57.046Z,29.60
2017-11-20T09:46:25.264Z,27.50
2017-11-20T09:48:52.728Z,26.33
2017-11-20T09:51:21.101Z,25.80
2017-11-20T09:53:49.107Z,27.60
2017-11-20T09:56:16.534Z,25.07
2017-11-20T09:58:43.966Z,27.60
2017-11-20T10:01:11.853Z,31.90
2017-11-20T10:03:39.291Z,26.90
2017-11-20T10:06:06.979Z,27.27
2017-11-20T10:08:34.839Z,29.93
2017-11-20T10:11:02.286Z,26.87
2017-11-20T10:13:32.441Z,29.77
2017-11-20T10:15:59.878Z,29.93
2017-11-20T10:18:27.325Z,31.13
2017-11-20T10:20:54.744Z,27.20
2017-11-20T10:23:22.956Z,29.50
2017-11-20T10:25:51.027Z,29.80
2017-11-20T10:28:18.469Z,28.17
2017-11-20T10:30:45.911Z,28.83
2017-11-20T10:33:14.109Z,24.97
2017-11-20T10:35:41.549Z,25.07
2017-11-20T10:38:08.987Z,23.03
2017-11-20T10:40:37.204Z,18.70
2017-11-20T10:43:07.753Z,23.10
2017-11-20T10:45:35.193Z,25.80
2017-11-20T10:48:02.894Z,16.13
2017-11-20T10:50:30.333Z,19.77
2017-11-20T10:52:58.597Z,21.13
2017-11-20T10:55:26.045Z,22.83
2017-11-20T10:57:53.467Z,25.03
2017-11-20T11:00:21.683Z,21.80
2017-11-20T11:02:49.106Z,24.77
2017-11-20T11:05:16.590Z,22.60
2017-11-20T11:07:44.022Z,22.20
2017-11-20T11:10:12.026Z,14.97
2017-11-20T11:12:39.533Z,22.83
2017-11-20T11:15:06.994Z,18.30
2017-11-20T11:17:35.186Z,19.97
2017-11-20T11:20:02.630Z,17.93
2017-11-20T11:22:30.815Z,20.93
2017-11-20T11:24:59.017Z,19.77
2017-11-20T11:27:26.459Z,21.30
2017-11-20T11:29:53.881Z,22.83
2017-11-20T11:32:21.324Z,26.00
2017-11-20T11:34:49.745Z,23.43
2017-11-20T11:37:19.192Z,21.80
2017-11-20T11:39:46.621Z,21.07
2017-11-20T11:42:14.067Z,16.70
2017-11-20T11:44:43.107Z,17.63
2017-11-20T11:47:10.532Z,23.93
2017-11-20T11:49:37.957Z,20.67
2017-11-20T11:52:06.160Z,15.50
2017-11-20T11:54:33.605Z,16.03
2017-11-20T11:57:04.509Z,19.53
2017-11-20T11:59:33.741Z,17.03
2017-11-20T12:02:01.438Z,12.90
2017-11-20T12:04:28.851Z,15.27
2017-11-20T12:06:56.970Z,15.40
2017-11-20T12:09:24.366Z,15.13
2017-11-20T12:11:52.567Z,16.53
2017-11-20T12:14:19.991Z,15.67
2017-11-20T12:16:48.208Z,14.97
2017-11-20T12:19:16.027Z,15.60
2017-11-20T12:21:43.437Z,14.13
2017-11-20T12:24:10.866Z,16.90
2017-11-20T12:26:38.305Z,15.80
2017-11-20T12:29:06.480Z,16.13
2017-11-20T12:31:34.703Z,11.77
2017-11-20T12:34:02.129Z,13.53
2017-11-20T12:36:29.554Z,12.03
2017-11-20T12:38:57.003Z,16.77
2017-11-20T12:41:24.438Z,11.80
2017-11-20T12:43:51.866Z,11.27
2017-11-20T12:46:19.290Z,19.37
2017-11-20T12:48:48.063Z,15.23
2017-11-20T12:51:15.487Z,7.20
2017-11-20T12:53:42.934Z,12.43
2017-11-20T12:56:10.337Z,13.37
2017-11-20T12:58:37.794Z,11.23
2017-11-20T13:01:05.231Z,12.73
2017-11-20T13:03:32.676Z,14.93
2017-11-20T13:06:00.089Z,16.90
2017-11-20T13:08:28.292Z,10.23
2017-11-20T13:10:55.760Z,13.20
2017-11-20T13:13:23.171Z,12.20
2017-11-20T13:15:51.361Z,14.00
2017-11-20T13:18:18.790Z,12.77
2017-11-20T13:20:46.208Z,14.37
2017-11-20T13:23:14.922Z,12.33
2017-11-20T13:25:43.149Z,11.57
2017-11-20T13:28:10.580Z,13.93
2017-11-20T13:30:38.777Z,15.67
2017-11-20T13:33:06.230Z,10.93
2017-11-20T13:35:33.653Z,14.13
2017-11-20T13:38:01.080Z,10.23
2017-11-20T13:40:29.330Z,13.90
2017-11-20T13:42:56.758Z,17.87
2017-11-20T13:45:25.349Z,16.67
2017-11-20T13:47:53.517Z,16.10
2017-11-20T13:50:21.710Z,12.57
2017-11-20T13:52:50.042Z,16.30
2017-11-20T13:55:17.472Z,11.17
2017-11-20T13:57:44.907Z,17.20
2017-11-20T14:00:12.374Z,12.37
2017-11-20T14:02:39.825Z,13.30
2017-11-20T14:05:07.259Z,15.73
2017-11-20T14:07:35.597Z,18.17
2017-11-20T14:10:03.113Z,13.63
2017-11-20T14:12:30.539Z,15.70
2017-11-20T14:14:58.731Z,16.10
2017-11-20T14:17:26.690Z,12.87
2017-11-20T14:19:55.472Z,19.13
2017-11-20T14:22:22.879Z,17.57
2017-11-20T14:24:50.333Z,17.97
2017-11-20T14:27:17.758Z,16.97
2017-11-20T14:29:45.212Z,14.97
2017-11-20T14:32:13.598Z,20.73
2017-11-20T14:34:45.986Z,15.83
2017-11-20T14:37:13.835Z,18.77
2017-11-20T14:39:41.777Z,13.27
2017-11-20T14:42:09.211Z,13.93
2017-11-20T14:44:36.653Z,16.23
2017-11-20T14:47:09.505Z,13.40
2017-11-20T14:49:37.268Z,17.23
2017-11-20T14:52:08.340Z,17.87
2017-11-20T14:54:39.449Z,14.30
2017-11-20T14:57:06.874Z,13.33
2017-11-20T14:59:34.564Z,17.03
2017-11-20T15:02:02.621Z,13.87
2017-11-20T15:04:31.073Z,23.10
2017-11-20T15:06:58.496Z,16.90
2017-11-20T15:09:25.914Z,17.47
2017-11-20T15:11:54.116Z,20.00
2017-11-20T15:14:21.546Z,19.97
2017-11-20T15:16:50.307Z,18.27
2017-11-20T15:19:17.729Z,21.20
2017-11-20T15:21:45.604Z,19.47
2017-11-20T15:24:13.034Z,22.30
2017-11-20T15:26:40.465Z,27.03
2017-11-20T15:29:09.208Z,24.07
2017-11-20T15:31:36.667Z,25.50
2017-11-20T15:34:04.102Z,23.07
2017-11-20T15:36:31.523Z,31.20
2017-11-20T15:38:59.715Z,31.17
2017-11-20T15:41:27.457Z,34.97
2017-11-20T15:43:54.917Z,30.70
2017-11-20T15:46:23.180Z,32.67
2017-11-20T15:48:50.618Z,32.67
2017-11-20T15:51:18.818Z,30.07
2017-11-20T15:53:46.261Z,30.63
2017-11-20T15:56:13.705Z,32.57
2017-11-20T15:58:41.843Z,35.03
2017-11-20T16:01:09.278Z,36.43
2017-11-20T16:03:37.510Z,34.27
2017-11-20T16:06:04.946Z,32.27
2017-11-20T16:08:32.664Z,45.17
2017-11-20T16:11:00.078Z,34.60
2017-11-20T16:13:27.533Z,38.57
2017-11-20T16:15:55.683Z,39.90
2017-11-20T16:18:23.579Z,40.57
2017-11-20T16:20:51.909Z,36.27
2017-11-20T16:23:22.634Z,43.77
2017-11-20T16:25:50.829Z,43.50
2017-11-20T16:28:18.258Z,40.87
2017-11-20T16:30:45.698Z,45.43
2017-11-20T16:33:14.103Z,46.67
2017-11-20T16:35:42.338Z,50.07
2017-11-20T16:38:09.773Z,43.57
2017-11-20T16:40:37.415Z,45.73
2017-11-20T16:43:04.850Z,40.27
2017-11-20T16:45:33.066Z,45.23
2017-11-20T16:48:01.162Z,44.43
2017-11-20T16:50:28.646Z,46.23
2017-11-20T16:52:57.492Z,51.53
2017-11-20T16:55:26.308Z,47.20
2017-11-20T16:58:06.132Z,51.30
2017-11-20T17:00:33.581Z,50.43
2017-11-20T17:03:08.865Z,48.03
2017-11-20T17:05:36.296Z,48.57
2017-11-20T17:08:03.739Z,50.30
2017-11-20T17:10:31.186Z,51.73
2017-11-20T17:12:59.000Z,53.63
2017-11-20T17:15:26.408Z,54.87
2017-11-20T17:17:53.850Z,53.33
2017-11-20T17:20:21.269Z,43.20
2017-11-20T17:22:48.724Z,56.40
2017-11-20T17:25:16.149Z,46.53
2017-11-20T17:27:44.427Z,53.50
2017-11-20T17:30:11.870Z,49.93
2017-11-20T17:32:39.330Z,48.77
2017-11-20T17:35:07.047Z,53.80
2017-11-20T17:37:34.472Z,52.20
2017-11-20T17:40:01.907Z,49.20
2017-11-20T17:42:30.149Z,49.73
2017-11-20T17:44:58.358Z,49.73
2017-11-20T17:47:25.805Z,45.73
2017-11-20T17:49:53.217Z,49.77
2017-11-20T17:52:21.091Z,47.93
2017-11-20T17:54:48.514Z,53.27
2017-11-20T17:57:15.941Z,46.80
2017-11-20T17:59:43.414Z,41.87
2017-11-20T18:02:10.850Z,43.87
2017-11-20T18:04:38.304Z,47.33
2017-11-20T18:07:05.731Z,43.93
2017-11-20T18:09:33.944Z,44.67
2017-11-20T18:12:01.667Z,48.10
2017-11-20T18:14:29.081Z,47.87
2017-11-20T18:16:56.935Z,48.13
2017-11-20T18:19:24.352Z,45.03
2017-11-20T18:21:55.030Z,44.43
2017-11-20T18:24:22.870Z,37.30
2017-11-20T18:26:51.057Z,41.37
2017-11-20T18:29:18.526Z,41.53
2017-11-20T18:31:46.521Z,41.03
2017-11-20T18:34:13.959Z,38.60
2017-11-20T18:36:41.395Z,44.13
2017-11-20T18:39:08.858Z,42.00
2017-11-20T18:41:36.279Z,48.03
2017-11-20T18:44:04.604Z,42.37
2017-11-20T18:46:32.072Z,45.83
2017-11-20T18:48:59.508Z,46.07
2017-11-20T18:51:27.034Z,49.13
2017-11-20T18:53:55.494Z,51.20
2017-11-20T18:56:22.984Z,44.97
2017-11-20T18:58:51.190Z,43.90
2017-11-20T19:01:31.069Z,42.00
2017-11-20T19:04:10.314Z,45.00
2017-11-20T19:06:49.602Z,43.77
2017-11-20T19:09:17.023Z,45.17
2017-11-20T19:11:45.244Z,43.53
2017-11-20T19:14:12.664Z,40.30
2017-11-20T19:16:40.881Z,39.77
2017-11-20T19:19:10.767Z,41.20
2017-11-20T19:21:38.194Z,41.50
2017-11-20T19:24:06.382Z,38.70
2017-11-20T19:26:33.840Z,36.63
2017-11-20T19:29:02.552Z,43.37
2017-11-20T19:31:29.995Z,41.83
2017-11-20T19:33:57.436Z,41.90
2017-11-20T19:36:25.629Z,36.83
2017-11-20T19:38:53.086Z,37.33
2017-11-20T19:41:21.270Z,34.63
2017-11-20T19:43:48.699Z,38.67
2017-11-20T19:46:16.901Z,35.33
2017-11-20T19:48:44.329Z,33.67
2017-11-20T19:51:12.550Z,26.80
2017-11-20T19:53:39.977Z,28.33
2017-11-20T19:56:07.423Z,28.47
2017-11-20T19:58:36.141Z,25.93
2017-11-20T20:01:03.598Z,30.93
2017-11-20T20:03:31.013Z,23.87
2017-11-20T20:05:59.224Z,26.90
2017-11-20T20:08:26.654Z,28.03
2017-11-20T20:10:54.090Z,28.20
2017-11-20T20:13:33.321Z,22.27
2017-11-20T20:16:13.240Z,24.33
2017-11-20T20:18:41.316Z,21.90
2017-11-20T20:21:08.750Z,24.27
2017-11-20T20:23:36.182Z,18.70
2017-11-20T20:26:04.374Z,18.40
2017-11-20T20:28:32.528Z,15.47
2017-11-20T20:31:00.701Z,16.67
2017-11-20T20:33:28.132Z,16.10
2017-11-20T20:35:55.561Z,18.10
2017-11-20T20:38:23.537Z,14.93
2017-11-20T20:40:51.494Z,15.40
2017-11-20T20:43:20.477Z,13.10
2017-11-20T20:45:47.910Z,14.13
2017-11-20T20:48:15.334Z,13.17
2017-11-20T20:50:42.813Z,14.03
2017-11-20T20:53:11.157Z,14.60
2017-11-20T20:55:38.614Z,14.07
2017-11-20T20:58:06.862Z,13.73
2017-11-20T21:00:34.299Z,15.37
2017-11-20T21:03:01.746Z,14.00
2017-11-20T21:05:29.161Z,15.20
2017-11-20T21:07:56.674Z,16.43
2017-11-20T21:10:29.804Z,12.70
2017-11-20T21:12:57.243Z,13.93
2017-11-20T21:15:24.870Z,14.57
2017-11-20T21:17:52.297Z,12.33
2017-11-20T21:20:19.722Z,13.30
2017-11-20T21:22:47.152Z,15.00
2017-11-20T21:25:14.579Z,14.37
2017-11-20T21:27:42.814Z,11.07
2017-11-20T21:30:10.229Z,10.63
2017-11-20T21:32:38.199Z,11.87
2017-11-20T21:35:05.627Z,12.03
2017-11-20T21:37:33.057Z,11.03
2017-11-20T21:40:00.485Z,10.33
2017-11-20T21:42:27.917Z,12.03
2017-11-20T21:44:55.336Z,10.17
2017-11-20T21:47:22.891Z,9.37
2017-11-20T21:49:50.328Z,10.83
2017-11-20T21:52:17.770Z,10.53
2017-11-20T21:54:45.189Z,13.30
2017-11-20T21:57:13.397Z,12.40
2017-11-20T21:59:40.814Z,13.37
2017-11-20T22:02:09.063Z,12.23
2017-11-20T22:04:39.718Z,13.47
2017-11-20T22:07:07.136Z,10.80
2017-11-20T22:09:35.098Z,9.67
2017-11-20T22:12:02.531Z,8.57
2017-11-20T22:14:30.721Z,8.37
2017-11-20T22:16:58.153Z,10.10
2017-11-20T22:19:26.333Z,9.97
2017-11-20T22:24:27.589Z,7.40
2017-11-20T22:26:55.769Z,8.40
2017-11-20T22:29:23.202Z,6.73
2017-11-20T22:31:51.044Z,6.83
2017-11-20T22:34:18.853Z,7.63
2017-11-20T22:36:47.033Z,5.77
2017-11-20T22:39:14.458Z,6.00
2017-11-20T22:41:41.889Z,6.17
2017-11-20T22:44:09.300Z,5.57
2017-11-20T22:46:37.272Z,7.13
2017-11-20T22:49:04.696Z,5.43
2017-11-20T22:51:32.126Z,5.87
2017-11-20T22:53:59.542Z,9.87
2017-11-20T22:56:26.955Z,4.77
2017-11-20T22:58:54.383Z,4.27
2017-11-20T23:01:21.809Z,3.60
2017-11-20T23:03:49.225Z,3.90
2017-11-20T23:06:16.652Z,3.30
2017-11-20T23:08:44.077Z,3.00
2017-11-20T23:11:11.769Z,3.30
2017-11-20T23:13:39.179Z,2.37
2017-11-20T23:16:07.559Z,2.60
2017-11-20T23:18:35.758Z,3.10
2017-11-20T23:21:03.173Z,2.27
2017-11-20T23:23:30.602Z,2.97
2017-11-20T23:25:58.785Z,2.53
2017-11-20T23:28:26.220Z,3.40
2017-11-20T23:30:53.946Z,3.60
2017-11-20T23:33:22.135Z,3.80
2017-11-20T23:35:50.107Z,2.93
2017-11-20T23:38:18.449Z,2.70
2017-11-20T23:40:45.897Z,2.70
2017-11-20T23:43:13.306Z,2.23
2017-11-20T23:45:40.728Z,2.07
2017-11-20T23:48:08.933Z,2.10
2017-11-20T23:50:37.258Z,2.90
2017-11-20T23:53:07.547Z,2.40
2017-11-20T23:55:34.967Z,1.60
2017-11-20T23:58:03.160Z,1.70
